Time;durP1;ratioP1;P1;durP2;ratioP2;P2;SDS_P1;SDS_P2;PMS_P1;PMS_P2;Temp;Humidity;BMP_temperature;BMP_pressure;BME280_temperature;BME280_humidity;BME280_pressure;Samples;Min_cycle;Max_cycle;Signal;HPM_P1;HPM_P2
2023/07/22 00:01:17;;;;;;;;;;;26.40;57.10;;;;;;5095430;28;19928;-55
2023/07/22 00:03:44;;;;;;;;;;;26.40;57.10;;;;;;5095864;28;19970;-56
2023/07/22 00:06:12;;;;;;;;;;;26.40;57.10;;;;;;5095615;28;19924;-55
2023/07/22 00:08:39;;;;;;;;;;;26.40;57.10;;;;;;5095281;28;19955;-54
2023/07/22 00:11:06;;;;;;;;;;;26.30;57.10;;;;;;5095781;28;19982;-52
2023/07/22 00:13:33;;;;;;;;;;;26.30;57.10;;;;;;5095658;28;19924;-55
2023/07/22 00:16:00;;;;;;;;;;;26.30;57.10;;;;;;5094312;28;19928;-55
2023/07/22 00:18:27;;;;;;;;;;;26.30;57.10;;;;;;5095388;28;20053;-55
2023/07/22 00:20:54;;;;;;;;;;;26.30;57.10;;;;;;5095314;28;19959;-53
2023/07/22 00:23:21;;;;;;;;;;;26.30;57.10;;;;;;5094356;28;19923;-55
2023/07/22 00:25:49;;;;;;;;;;;26.30;57.10;;;;;;5095378;28;19924;-55
2023/07/22 00:28:15;;;;;;;;;;;26.30;57.20;;;;;;5095146;28;19963;-55
2023/07/22 00:30:42;;;;;;;;;;;26.30;57.20;;;;;;5095062;28;20446;-55
2023/07/22 00:33:09;;;;;;;;;;;26.30;57.20;;;;;;5094955;28;19924;-55
2023/07/22 00:35:36;;;;;;;;;;;26.30;57.20;;;;;;5095196;28;19924;-55
2023/07/22 00:38:04;;;;;;;;;;;26.30;57.30;;;;;;5094675;28;20411;-55
2023/07/22 00:40:31;;;;;;;;;;;26.30;57.30;;;;;;5094725;28;19975;-55
2023/07/22 00:43:02;;;;;;;;;;;26.30;57.30;;;;;;5094994;28;19931;-55
2023/07/22 00:45:28;;;;;;;;;;;26.20;57.20;;;;;;5095241;28;20007;-56
2023/07/22 00:47:55;;;;;;;;;;;26.30;57.30;;;;;;5094600;28;20347;-55
2023/07/22 00:50:23;;;;;;;;;;;26.20;57.30;;;;;;5094664;28;19977;-56
2023/07/22 00:52:50;;;;;;;;;;;26.30;57.40;;;;;;5094780;28;20019;-55
2023/07/22 00:55:17;;;;;;;;;;;26.20;57.30;;;;;;5094842;28;19924;-55
2023/07/22 00:57:44;;;;;;;;;;;26.20;57.50;;;;;;5094174;28;20365;-55
2023/07/22 01:00:12;;;;;;;;;;;26.20;57.30;;;;;;5094627;28;19964;-55
2023/07/22 01:02:40;;;;;;;;;;;26.20;57.30;;;;;;5094255;28;19928;-55
2023/07/22 01:05:10;;;;;;;;;;;26.20;57.30;;;;;;5094852;28;20292;-55
2023/07/22 01:07:38;;;;;;;;;;;26.20;57.40;;;;;;5094264;28;19947;-55
2023/07/22 01:10:05;;;;;;;;;;;26.20;57.40;;;;;;5094625;28;19924;-55
2023/07/22 01:12:33;;;;;;;;;;;26.30;57.40;;;;;;5094441;28;20008;-58
2023/07/22 01:15:00;;;;;;;;;;;26.20;57.40;;;;;;5094343;28;19971;-54
2023/07/22 01:17:27;;;;;;;;;;;26.20;57.40;;;;;;5093866;28;20007;-56
2023/07/22 01:19:56;;;;;;;;;;;26.20;57.40;;;;;;5093991;28;19924;-54
2023/07/22 01:22:23;;;;;;;;;;;26.20;57.40;;;;;;5094379;28;19978;-55
2023/07/22 01:24:50;;;;;;;;;;;26.30;58.00;;;;;;5094363;28;19928;-53
2023/07/22 01:27:17;;;;;;;;;;;26.30;57.40;;;;;;5093953;28;20376;-52
2023/07/22 01:29:44;;;;;;;;;;;26.30;57.50;;;;;;5093828;28;19959;-53
2023/07/22 01:32:11;;;;;;;;;;;26.20;57.40;;;;;;5092241;28;19924;-53
2023/07/22 01:34:39;;;;;;;;;;;26.30;57.50;;;;;;5093297;28;20123;-53
2023/07/22 01:37:06;;;;;;;;;;;26.30;57.40;;;;;;5093686;28;19928;-51
2023/07/22 01:39:33;;;;;;;;;;;26.30;57.50;;;;;;5093567;28;19931;-56
2023/07/22 01:42:01;;;;;;;;;;;26.30;57.40;;;;;;5093590;28;19986;-55
2023/07/22 01:44:28;;;;;;;;;;;26.30;57.40;;;;;;5093704;28;19970;-55
2023/07/22 01:46:55;;;;;;;;;;;26.30;57.40;;;;;;5093119;28;19960;-55
2023/07/22 01:49:24;;;;;;;;;;;26.30;57.40;;;;;;5093841;28;19978;-56
2023/07/22 01:51:52;;;;;;;;;;;26.30;57.40;;;;;;5093523;28;19957;-56
2023/07/22 01:54:19;;;;;;;;;;;26.30;57.40;;;;;;5093806;28;20018;-55
2023/07/22 01:56:46;;;;;;;;;;;26.30;57.40;;;;;;5093368;28;20429;-55
2023/07/22 01:59:13;;;;;;;;;;;26.30;57.40;;;;;;5093545;28;19931;-53
2023/07/22 02:01:40;;;;;;;;;;;26.30;57.40;;;;;;5093406;28;20440;-58
2023/07/22 02:04:07;;;;;;;;;;;26.30;57.40;;;;;;5093748;28;20068;-54
2023/07/22 02:06:34;;;;;;;;;;;26.30;57.40;;;;;;5091821;28;19931;-51
2023/07/22 02:09:08;;;;;;;;;;;26.30;57.40;;;;;;5093274;28;19974;-54
2023/07/22 02:11:35;;;;;;;;;;;26.30;57.40;;;;;;5093611;28;19931;-55
2023/07/22 02:14:06;;;;;;;;;;;26.20;57.90;;;;;;5093572;28;20299;-53
2023/07/22 02:16:37;;;;;;;;;;;26.20;57.30;;;;;;5093185;28;19931;-56
2023/07/22 02:19:04;;;;;;;;;;;26.20;57.30;;;;;;5093351;28;19924;-53
2023/07/22 02:21:31;;;;;;;;;;;26.20;57.30;;;;;;5093385;28;20011;-54
2023/07/22 02:23:58;;;;;;;;;;;26.20;57.40;;;;;;5093268;28;20384;-54
2023/07/22 02:26:25;;;;;;;;;;;26.20;57.40;;;;;;5093523;28;20015;-54
2023/07/22 02:28:52;;;;;;;;;;;26.20;57.40;;;;;;5091917;28;19973;-56
2023/07/22 02:31:21;;;;;;;;;;;26.20;57.40;;;;;;5093507;28;19924;-54
2023/07/22 02:33:48;;;;;;;;;;;26.20;57.40;;;;;;5093375;28;19930;-55
2023/07/22 02:36:15;;;;;;;;;;;26.20;57.50;;;;;;5093170;28;20361;-55
2023/07/22 02:38:42;;;;;;;;;;;26.20;57.50;;;;;;5092978;28;20269;-55
2023/07/22 02:41:09;;;;;;;;;;;26.20;57.50;;;;;;5092095;28;19928;-55
2023/07/22 02:43:36;;;;;;;;;;;26.20;57.50;;;;;;5093189;28;19930;-55
2023/07/22 02:46:05;;;;;;;;;;;26.20;57.50;;;;;;5093846;28;20012;-54
2023/07/22 02:48:32;;;;;;;;;;;26.10;57.50;;;;;;5097123;28;19924;-53
2023/07/22 02:51:04;;;;;;;;;;;26.10;57.50;;;;;;5096099;28;19987;-55
2023/07/22 02:53:32;;;;;;;;;;;26.10;57.50;;;;;;5096790;28;19984;-53
2023/07/22 02:55:59;;;;;;;;;;;26.10;57.50;;;;;;5096830;28;20015;-54
2023/07/22 02:58:26;;;;;;;;;;;26.10;57.50;;;;;;5096329;28;20014;-54
2023/07/22 03:00:53;;;;;;;;;;;26.10;57.50;;;;;;5096534;28;20355;-55
2023/07/22 03:03:20;;;;;;;;;;;26.10;57.60;;;;;;5095473;28;20432;-55
2023/07/22 03:05:47;;;;;;;;;;;26.10;57.60;;;;;;5096676;28;20372;-55
2023/07/22 03:08:14;;;;;;;;;;;26.10;57.60;;;;;;5096696;28;19976;-54
2023/07/22 03:10:43;;;;;;;;;;;26.10;57.60;;;;;;5096496;28;19967;-53
2023/07/22 03:13:10;;;;;;;;;;;26.10;57.60;;;;;;5096434;28;19979;-53
2023/07/22 03:15:37;;;;;;;;;;;26.10;57.60;;;;;;5096974;28;19928;-56
2023/07/22 03:18:06;;;;;;;;;;;26.10;57.60;;;;;;5095410;28;20203;-54
2023/07/22 03:20:33;;;;;;;;;;;26.10;57.60;;;;;;5096601;28;19924;-56
2023/07/22 03:23:00;;;;;;;;;;;26.10;57.60;;;;;;5096605;28;19989;-54
2023/07/22 03:25:27;;;;;;;;;;;26.10;57.60;;;;;;5096603;28;19971;-55
2023/07/22 03:27:54;;;;;;;;;;;26.10;57.60;;;;;;5096523;28;20357;-55
2023/07/22 03:30:22;;;;;;;;;;;26.10;57.60;;;;;;5096246;28;20383;-54
2023/07/22 03:32:50;;;;;;;;;;;26.10;58.20;;;;;;5096091;28;19985;-52
2023/07/22 03:35:17;;;;;;;;;;;26.10;57.60;;;;;;5096513;28;20008;-55
2023/07/22 03:37:45;;;;;;;;;;;26.10;57.70;;;;;;5095745;28;19975;-55
2023/07/22 03:40:19;;;;;;;;;;;26.10;57.60;;;;;;5096075;28;19935;-52
2023/07/22 03:42:50;;;;;;;;;;;26.10;57.70;;;;;;5096219;28;20038;-54
2023/07/22 03:45:18;;;;;;;;;;;26.10;57.70;;;;;;5096016;28;19924;-54
2023/07/22 03:47:45;;;;;;;;;;;26.10;57.60;;;;;;5096146;28;19970;-56
2023/07/22 03:50:13;;;;;;;;;;;26.10;57.60;;;;;;5095739;28;19931;-56
2023/07/22 03:52:40;;;;;;;;;;;26.20;57.70;;;;;;5096182;28;20331;-54
2023/07/22 03:55:07;;;;;;;;;;;26.20;57.60;;;;;;5095819;28;19979;-54
2023/07/22 03:57:34;;;;;;;;;;;26.20;57.60;;;;;;5094513;28;19950;-54
2023/07/22 04:00:03;;;;;;;;;;;26.20;57.60;;;;;;5095606;28;19924;-54
2023/07/22 04:02:30;;;;;;;;;;;26.20;57.50;;;;;;5095571;28;20299;-53
2023/07/22 04:05:00;;;;;;;;;;;26.20;57.50;;;;;;5095930;28;19924;-52
2023/07/22 04:07:27;;;;;;;;;;;26.30;57.50;;;;;;5095569;28;19924;-55
2023/07/22 04:09:54;;;;;;;;;;;26.30;57.50;;;;;;5095300;28;19928;-56
2023/07/22 04:12:21;;;;;;;;;;;26.30;57.40;;;;;;5095529;28;19981;-55
2023/07/22 04:14:48;;;;;;;;;;;26.30;57.40;;;;;;5095751;28;20432;-55
2023/07/22 04:17:15;;;;;;;;;;;26.30;57.30;;;;;;5094129;28;19967;-55
2023/07/22 04:19:46;;;;;;;;;;;26.30;57.30;;;;;;5095497;28;20003;-56
2023/07/22 04:22:13;;;;;;;;;;;26.40;57.30;;;;;;5095259;28;19930;-55
2023/07/22 04:24:40;;;;;;;;;;;26.40;57.20;;;;;;5093909;28;19930;-54
2023/07/22 04:27:07;;;;;;;;;;;26.40;57.10;;;;;;5095496;28;20023;-55
2023/07/22 04:29:35;;;;;;;;;;;26.40;57.10;;;;;;5094804;28;19924;-55
2023/07/22 04:32:02;;;;;;;;;;;26.40;57.10;;;;;;5094899;28;19928;-56
2023/07/22 04:34:30;;;;;;;;;;;26.40;57.10;;;;;;5095190;28;19928;-54
2023/07/22 04:36:57;;;;;;;;;;;26.40;57.10;;;;;;5094979;28;19968;-55
2023/07/22 04:39:24;;;;;;;;;;;26.40;57.10;;;;;;5094583;28;19971;-54
2023/07/22 04:41:51;;;;;;;;;;;26.40;57.00;;;;;;5094715;28;19928;-56
2023/07/22 04:44:19;;;;;;;;;;;26.40;56.90;;;;;;5095090;28;19924;-55
2023/07/22 04:46:46;;;;;;;;;;;26.40;56.90;;;;;;5095011;28;19963;-53
2023/07/22 04:49:13;;;;;;;;;;;26.40;56.90;;;;;;5094525;28;19977;-54
2023/07/22 04:51:40;;;;;;;;;;;26.50;56.90;;;;;;5094727;28;20416;-53
2023/07/22 04:54:07;;;;;;;;;;;26.50;56.80;;;;;;5094896;28;19924;-54
2023/07/22 04:56:34;;;;;;;;;;;26.50;56.80;;;;;;5094969;28;20361;-54
2023/07/22 04:59:02;;;;;;;;;;;26.50;56.70;;;;;;5094516;28;19931;-54
2023/07/22 05:01:29;;;;;;;;;;;26.50;56.70;;;;;;5094516;28;19932;-55
2023/07/22 05:03:57;;;;;;;;;;;26.50;56.60;;;;;;5094447;28;20019;-54
2023/07/22 05:06:24;;;;;;;;;;;26.50;56.30;;;;;;5094250;28;19924;-54
2023/07/22 05:08:52;;;;;;;;;;;26.60;56.10;;;;;;5093577;28;19971;-54
2023/07/22 05:11:19;;;;;;;;;;;26.60;55.80;;;;;;5094335;28;20015;-51
2023/07/22 05:13:46;;;;;;;;;;;26.70;55.60;;;;;;5094351;28;19978;-53
2023/07/22 05:16:16;;;;;;;;;;;26.70;55.30;;;;;;5094502;28;19924;-55
2023/07/22 05:18:43;;;;;;;;;;;26.70;55.00;;;;;;5094004;28;19924;-54
2023/07/22 05:21:10;;;;;;;;;;;26.70;54.70;;;;;;5094035;28;19970;-56
2023/07/22 05:23:37;;;;;;;;;;;26.80;54.40;;;;;;5094338;28;20023;-54
2023/07/22 05:26:04;;;;;;;;;;;26.80;54.20;;;;;;5094215;28;19924;-53
2023/07/22 05:28:31;;;;;;;;;;;26.80;53.80;;;;;;5093772;28;19934;-53
2023/07/22 05:30:58;;;;;;;;;;;26.90;53.50;;;;;;5094158;28;20368;-54
2023/07/22 05:33:25;;;;;;;;;;;26.90;53.30;;;;;;5094029;28;19931;-54
2023/07/22 05:35:52;;;;;;;;;;;26.90;53.20;;;;;;5094041;28;19928;-55
2023/07/22 05:38:18;;;;;;;;;;;26.90;53.10;;;;;;5092848;28;19958;-51
2023/07/22 05:40:45;;;;;;;;;;;26.80;52.80;;;;;;5093729;28;20015;-54
2023/07/22 05:43:12;;;;;;;;;;;26.90;52.70;;;;;;5093461;28;19976;-55
2023/07/22 05:45:39;;;;;;;;;;;26.90;52.50;;;;;;5091929;28;19975;-53
2023/07/22 05:48:06;;;;;;;;;;;26.90;52.30;;;;;;5092948;28;19924;-53
2023/07/22 05:50:34;;;;;;;;;;;26.90;52.20;;;;;;5093770;28;20296;-56
2023/07/22 05:53:01;;;;;;;;;;;26.90;52.10;;;;;;5093543;28;20022;-52
2023/07/22 05:55:27;;;;;;;;;;;27.00;52.00;;;;;;5093916;28;19971;-55
2023/07/22 05:57:54;;;;;;;;;;;27.00;51.60;;;;;;5093389;28;19924;-54
2023/07/22 06:00:21;;;;;;;;;;;27.00;51.30;;;;;;5093262;28;20443;-56
2023/07/22 06:02:48;;;;;;;;;;;27.00;51.40;;;;;;5093271;28;20014;-55
2023/07/22 06:05:15;;;;;;;;;;;27.00;51.50;;;;;;5093598;28;19963;-56
2023/07/22 06:07:42;;;;;;;;;;;27.00;51.50;;;;;;5093359;28;20017;-55
2023/07/22 06:10:10;;;;;;;;;;;27.00;51.50;;;;;;5093137;28;19967;-55
2023/07/22 06:12:38;;;;;;;;;;;27.10;51.40;;;;;;5093358;28;20388;-54
2023/07/22 06:15:06;;;;;;;;;;;27.10;51.30;;;;;;5093163;28;19997;-56
2023/07/22 06:17:33;;;;;;;;;;;27.10;51.10;;;;;;5093383;28;19924;-56
2023/07/22 06:20:00;;;;;;;;;;;27.00;51.00;;;;;;5093286;28;20369;-55
2023/07/22 06:22:27;;;;;;;;;;;27.10;51.10;;;;;;5097112;28;19960;-55
2023/07/22 06:24:53;;;;;;;;;;;27.10;51.00;;;;;;5097412;28;19985;-56
2023/07/22 06:27:21;;;;;;;;;;;27.00;50.90;;;;;;5097360;28;19924;-54
2023/07/22 06:29:47;;;;;;;;;;;27.10;50.90;;;;;;5097199;28;19924;-56
2023/07/22 06:32:14;;;;;;;;;;;27.10;50.70;;;;;;5097156;28;20014;-55
2023/07/22 06:34:41;;;;;;;;;;;27.10;50.70;;;;;;5097670;28;20392;-55
2023/07/22 06:37:09;;;;;;;;;;;27.10;50.50;;;;;;5097036;28;19974;-53
2023/07/22 06:39:36;;;;;;;;;;;27.10;50.50;;;;;;5097005;28;20023;-55
2023/07/22 06:42:02;;;;;;;;;;;27.10;50.40;;;;;;5096753;28;20014;-56
2023/07/22 06:44:29;;;;;;;;;;;27.10;50.50;;;;;;5097482;28;20367;-55
2023/07/22 06:46:58;;;;;;;;;;;27.10;50.40;;;;;;5097386;28;19985;-54
2023/07/22 06:49:25;;;;;;;;;;;27.10;50.30;;;;;;5096601;28;19966;-57
2023/07/22 06:51:52;;;;;;;;;;;27.10;50.30;;;;;;5097004;28;19971;-56
2023/07/22 06:54:19;;;;;;;;;;;27.10;50.30;;;;;;5095937;28;19970;-57
2023/07/22 06:56:46;;;;;;;;;;;27.20;50.30;;;;;;5096795;28;19971;-54
2023/07/22 06:59:13;;;;;;;;;;;27.20;50.20;;;;;;5096588;28;20288;-54
2023/07/22 07:01:40;;;;;;;;;;;27.20;50.20;;;;;;5096850;28;19967;-55
2023/07/22 07:04:08;;;;;;;;;;;27.10;50.00;;;;;;5096915;28;19924;-55
2023/07/22 07:06:36;;;;;;;;;;;27.10;50.00;;;;;;5094533;28;19925;-55
2023/07/22 07:09:03;;;;;;;;;;;27.20;50.00;;;;;;5085681;28;20434;-55
2023/07/22 07:11:30;;;;;;;;;;;27.20;49.90;;;;;;5076308;28;19934;-55
2023/07/22 07:13:57;;;;;;;;;;;27.20;49.90;;;;;;5076742;28;19968;-55
2023/07/22 07:16:27;;;;;;;;;;;27.20;49.80;;;;;;5078340;28;19933;-54
2023/07/22 07:18:56;;;;;;;;;;;27.20;49.80;;;;;;5080693;28;20403;-54
2023/07/22 07:21:23;;;;;;;;;;;27.20;49.70;;;;;;5075749;28;20020;-54
2023/07/22 07:23:51;;;;;;;;;;;27.20;49.70;;;;;;5075868;28;19924;-54
2023/07/22 07:26:19;;;;;;;;;;;27.20;49.60;;;;;;5078648;28;19925;-54
2023/07/22 07:28:46;;;;;;;;;;;27.20;49.60;;;;;;5084720;28;20416;-53
2023/07/22 07:31:13;;;;;;;;;;;27.20;49.50;;;;;;5083409;28;19956;-53
2023/07/22 07:33:40;;;;;;;;;;;27.20;49.40;;;;;;5082005;28;19966;-56
2023/07/22 07:36:07;;;;;;;;;;;27.20;49.30;;;;;;5082635;28;19924;-58
2023/07/22 07:38:34;;;;;;;;;;;27.20;49.20;;;;;;5084518;28;19949;-58
2023/07/22 07:41:08;;;;;;;;;;;27.20;49.20;;;;;;5084266;28;20261;-55
2023/07/22 07:43:35;;;;;;;;;;;27.30;49.10;;;;;;5090823;28;19928;-56
2023/07/22 07:46:22;;;;;;;;;;;27.30;49.10;;;;;;5081111;28;19928;-56
2023/07/22 07:48:51;;;;;;;;;;;27.30;49.00;;;;;;5081015;28;19924;-54
2023/07/22 07:51:19;;;;;;;;;;;27.30;48.90;;;;;;5078836;28;20431;-54
2023/07/22 07:53:46;;;;;;;;;;;27.30;48.80;;;;;;5088922;28;19925;-54
2023/07/22 07:56:14;;;;;;;;;;;27.30;48.80;;;;;;5091338;28;19979;-54
2023/07/22 07:58:40;;;;;;;;;;;27.30;48.80;;;;;;5082230;28;19964;-52
2023/07/22 08:01:08;;;;;;;;;;;27.40;48.80;;;;;;5082041;28;19929;-54
2023/07/22 08:03:35;;;;;;;;;;;27.30;48.70;;;;;;5076727;28;20308;-54
2023/07/22 08:06:03;;;;;;;;;;;27.30;48.80;;;;;;5074680;28;19928;-55
2023/07/22 08:08:30;;;;;;;;;;;27.30;48.80;;;;;;5086596;28;20011;-53
2023/07/22 08:10:58;;;;;;;;;;;27.30;48.80;;;;;;5078798;28;20257;-55
2023/07/22 08:13:25;;;;;;;;;;;27.30;48.80;;;;;;5075118;28;19925;-54
2023/07/22 08:15:53;;;;;;;;;;;27.30;48.80;;;;;;5074990;28;20483;-56
2023/07/22 08:18:20;;;;;;;;;;;27.30;48.80;;;;;;5074943;28;20394;-55
2023/07/22 08:20:47;;;;;;;;;;;27.30;48.70;;;;;;5074837;28;20003;-56
2023/07/22 08:23:14;;;;;;;;;;;27.30;48.70;;;;;;5074856;28;20018;-55
2023/07/22 08:25:41;;;;;;;;;;;27.30;48.60;;;;;;5074784;28;19983;-56
2023/07/22 08:28:08;;;;;;;;;;;27.30;48.60;;;;;;5074783;28;19924;-55
2023/07/22 08:30:35;;;;;;;;;;;27.30;48.50;;;;;;5075116;28;19930;-55
2023/07/22 08:33:02;;;;;;;;;;;27.30;48.40;;;;;;5075061;28;19925;-54
2023/07/22 08:35:29;;;;;;;;;;;27.30;48.40;;;;;;5074758;28;20011;-55
2023/07/22 08:38:00;;;;;;;;;;;27.30;48.30;;;;;;5074631;28;19932;-54
2023/07/22 08:40:27;;;;;;;;;;;27.30;48.40;;;;;;5074205;28;19978;-54
2023/07/22 08:42:54;;;;;;;;;;;27.30;48.40;;;;;;5113608;28;20427;-54
2023/07/22 08:45:22;;;;;;;;;;;27.30;48.10;;;;;;5114439;28;19969;-54
2023/07/22 08:47:50;;;;;;;;;;;27.40;48.20;;;;;;5115252;28;19924;-55
2023/07/22 08:50:19;;;;;;;;;;;27.40;48.20;;;;;;5098171;28;20030;-55
2023/07/22 08:52:46;;;;;;;;;;;27.40;48.00;;;;;;5093298;28;19930;-57
2023/07/22 08:55:14;;;;;;;;;;;27.40;48.20;;;;;;5089279;28;19934;-54
2023/07/22 08:57:41;;;;;;;;;;;27.40;47.90;;;;;;5094617;28;19924;-55
2023/07/22 09:00:09;;;;;;;;;;;27.40;47.90;;;;;;5091241;28;19932;-55
2023/07/22 09:02:37;;;;;;;;;;;27.40;47.90;;;;;;5084770;28;19930;-54
2023/07/22 09:05:04;;;;;;;;;;;27.40;47.90;;;;;;5084128;28;19932;-54
2023/07/22 09:07:31;;;;;;;;;;;27.40;47.70;;;;;;5084491;28;19983;-54
2023/07/22 09:09:58;;;;;;;;;;;27.40;47.60;;;;;;5084534;28;19924;-55
2023/07/22 09:12:25;;;;;;;;;;;27.40;47.60;;;;;;5083766;28;19925;-53
2023/07/22 09:14:53;;;;;;;;;;;27.40;47.60;;;;;;5075549;28;20019;-55
2023/07/22 09:17:20;;;;;;;;;;;27.40;47.40;;;;;;5079053;28;20389;-55
2023/07/22 09:19:51;;;;;;;;;;;27.40;47.40;;;;;;5083836;28;20034;-54
2023/07/22 09:22:18;;;;;;;;;;;27.40;47.50;;;;;;5092433;28;19971;-54
2023/07/22 09:24:45;;;;;;;;;;;27.40;47.30;;;;;;5093401;28;19969;-54
2023/07/22 09:27:12;;;;;;;;;;;27.40;47.40;;;;;;5083464;28;19933;-55
2023/07/22 09:29:44;;;;;;;;;;;27.40;47.30;;;;;;5074482;28;19946;-54
2023/07/22 09:32:11;;;;;;;;;;;27.40;47.30;;;;;;5087898;28;19931;-55
2023/07/22 09:34:53;;;;;;;;;;;27.40;47.30;;;;;;5069671;28;20015;-55
2023/07/22 09:37:21;;;;;;;;;;;27.40;47.20;;;;;;5081376;28;19968;-55
2023/07/22 09:39:49;;;;;;;;;;;27.40;47.20;;;;;;5092990;28;19959;-55
2023/07/22 09:42:27;;;;;;;;;;;27.40;47.00;;;;;;5089795;28;19924;-55
2023/07/22 09:44:54;;;;;;;;;;;27.40;47.00;;;;;;5075522;28;19972;-55
2023/07/22 09:47:21;;;;;;;;;;;27.40;47.10;;;;;;5082368;28;19970;-55
2023/07/22 09:49:49;;;;;;;;;;;27.40;46.80;;;;;;5073398;28;19929;-54
2023/07/22 09:52:16;;;;;;;;;;;27.40;46.80;;;;;;5073635;28;19972;-55
2023/07/22 09:54:46;;;;;;;;;;;27.40;46.80;;;;;;5073514;28;19924;-54
2023/07/22 09:57:13;;;;;;;;;;;27.40;46.70;;;;;;5088447;28;20450;-54
2023/07/22 09:59:40;;;;;;;;;;;27.40;46.60;;;;;;5093489;28;20361;-54
2023/07/22 10:02:10;;;;;;;;;;;27.40;46.50;;;;;;5093533;28;19977;-55
2023/07/22 10:04:39;;;;;;;;;;;27.40;46.50;;;;;;5093390;28;20376;-55
2023/07/22 10:07:07;;;;;;;;;;;27.40;46.50;;;;;;5093348;28;20460;-54
2023/07/22 10:09:37;;;;;;;;;;;27.40;46.30;;;;;;5093525;28;20388;-55
2023/07/22 10:12:04;;;;;;;;;;;27.40;46.40;;;;;;5079032;28;19960;-54
2023/07/22 10:14:31;;;;;;;;;;;27.40;46.30;;;;;;5083715;28;20301;-55
2023/07/22 10:17:03;;;;;;;;;;;27.40;46.20;;;;;;5093342;28;19933;-55
2023/07/22 10:19:30;;;;;;;;;;;27.40;46.30;;;;;;5093426;28;19931;-55
2023/07/22 10:21:57;;;;;;;;;;;27.40;46.20;;;;;;5092997;28;20339;-55
2023/07/22 10:24:24;;;;;;;;;;;27.40;46.30;;;;;;5093336;28;19975;-55
2023/07/22 10:26:52;;;;;;;;;;;27.40;46.20;;;;;;5093496;28;20253;-53
2023/07/22 10:29:20;;;;;;;;;;;27.40;46.10;;;;;;5092569;28;19931;-52
2023/07/22 10:31:52;;;;;;;;;;;27.40;46.00;;;;;;5093353;28;19970;-55
2023/07/22 10:34:21;;;;;;;;;;;27.40;46.20;;;;;;5092430;28;19924;-55
2023/07/22 10:36:48;;;;;;;;;;;27.40;45.90;;;;;;5093451;28;20265;-54
2023/07/22 10:39:28;;;;;;;;;;;27.40;45.80;;;;;;5093335;28;19975;-54
2023/07/22 10:42:04;;;;;;;;;;;27.40;45.80;;;;;;5092815;28;19930;-56
2023/07/22 10:44:33;;;;;;;;;;;27.40;45.60;;;;;;5093502;28;19947;-54
2023/07/22 10:47:00;;;;;;;;;;;27.40;45.50;;;;;;5086667;28;19931;-53
2023/07/22 10:49:44;;;;;;;;;;;27.40;45.50;;;;;;5073180;28;20408;-54
2023/07/22 10:52:13;;;;;;;;;;;27.40;45.40;;;;;;5072737;28;19979;-55
2023/07/22 10:54:40;;;;;;;;;;;27.40;45.50;;;;;;5071728;28;20007;-52
2023/07/22 10:57:24;;;;;;;;;;;27.40;45.50;;;;;;5072022;28;19938;-56
2023/07/22 10:59:52;;;;;;;;;;;27.40;45.40;;;;;;5072788;28;20383;-53
2023/07/22 11:02:26;;;;;;;;;;;27.40;45.30;;;;;;5072865;28;19931;-54
2023/07/22 11:04:56;;;;;;;;;;;27.40;45.20;;;;;;5072104;28;19935;-55
2023/07/22 11:07:43;;;;;;;;;;;27.50;45.20;;;;;;5089641;28;19930;-55
2023/07/22 11:10:15;;;;;;;;;;;27.50;45.20;;;;;;5076379;28;19986;-54
2023/07/22 11:12:44;;;;;;;;;;;27.40;45.10;;;;;;5079575;28;19931;-54
2023/07/22 11:15:11;;;;;;;;;;;27.50;45.10;;;;;;5097058;28;19924;-55
2023/07/22 11:17:38;;;;;;;;;;;27.50;45.00;;;;;;5088995;28;19931;-54
2023/07/22 11:20:05;;;;;;;;;;;27.50;45.00;;;;;;5076509;28;19925;-53
2023/07/22 11:22:32;;;;;;;;;;;27.50;44.90;;;;;;5080262;28;19975;-55
2023/07/22 11:24:59;;;;;;;;;;;27.50;44.90;;;;;;5086821;28;20018;-54
2023/07/22 11:27:28;;;;;;;;;;;27.50;44.90;;;;;;5079128;28;20023;-55
2023/07/22 11:29:57;;;;;;;;;;;27.50;44.90;;;;;;5076106;28;19924;-54
2023/07/22 11:32:24;;;;;;;;;;;27.50;44.90;;;;;;5075704;28;19936;-53
2023/07/22 11:34:52;;;;;;;;;;;27.50;44.80;;;;;;5076072;28;19924;-55
2023/07/22 11:37:19;;;;;;;;;;;27.50;44.90;;;;;;5075472;28;19924;-54
2023/07/22 11:39:46;;;;;;;;;;;27.50;44.80;;;;;;5074701;28;20027;-53
2023/07/22 11:42:13;;;;;;;;;;;27.60;44.90;;;;;;5075769;28;20019;-56
2023/07/22 11:44:41;;;;;;;;;;;27.50;44.70;;;;;;5074681;28;19986;-54
2023/07/22 11:47:08;;;;;;;;;;;27.50;44.80;;;;;;5075598;28;19924;-54
2023/07/22 11:49:36;;;;;;;;;;;27.60;44.80;;;;;;5075745;28;19971;-55
2023/07/22 11:52:04;;;;;;;;;;;27.50;44.70;;;;;;5074333;28;20042;-54
2023/07/22 11:54:33;;;;;;;;;;;27.60;44.70;;;;;;5075696;28;20381;-54
2023/07/22 11:57:13;;;;;;;;;;;27.60;44.70;;;;;;5074908;28;19966;-54
2023/07/22 11:59:43;;;;;;;;;;;27.50;44.60;;;;;;5075490;28;19931;-55
2023/07/22 12:02:17;;;;;;;;;;;27.50;44.60;;;;;;5075149;28;20468;-55
2023/07/22 12:04:55;;;;;;;;;;;27.50;44.60;;;;;;5075673;28;19970;-54
2023/07/22 12:07:30;;;;;;;;;;;27.50;44.60;;;;;;5074668;28;19975;-53
2023/07/22 12:09:58;;;;;;;;;;;27.60;44.70;;;;;;5075670;28;19931;-55
2023/07/22 12:12:32;;;;;;;;;;;27.50;44.60;;;;;;5075184;28;19932;-54
2023/07/22 12:15:04;;;;;;;;;;;27.60;44.50;;;;;;5075456;28;19928;-54
2023/07/22 12:17:43;;;;;;;;;;;27.60;44.50;;;;;;5074919;28;19946;-54
2023/07/22 12:20:10;;;;;;;;;;;27.50;44.40;;;;;;5075347;28;19925;-53
2023/07/22 12:22:37;;;;;;;;;;;27.60;44.50;;;;;;5094842;28;19924;-54
2023/07/22 12:25:05;;;;;;;;;;;27.60;44.50;;;;;;5095092;28;19970;-55
2023/07/22 12:27:32;;;;;;;;;;;27.60;44.50;;;;;;5095140;28;20441;-56
2023/07/22 12:29:59;;;;;;;;;;;27.60;44.40;;;;;;5095245;28;19959;-55
2023/07/22 12:32:26;;;;;;;;;;;27.60;44.40;;;;;;5094989;28;19993;-56
2023/07/22 12:34:53;;;;;;;;;;;27.60;44.40;;;;;;5095173;28;20364;-55
2023/07/22 12:37:20;;;;;;;;;;;27.60;44.30;;;;;;5094519;28;19978;-56
2023/07/22 12:39:47;;;;;;;;;;;27.60;44.20;;;;;;5094399;28;19924;-55
2023/07/22 12:42:14;;;;;;;;;;;27.70;44.20;;;;;;5094858;28;19977;-55
2023/07/22 12:44:41;;;;;;;;;;;27.70;44.10;;;;;;5094586;28;20440;-56
2023/07/22 12:47:08;;;;;;;;;;;27.80;44.10;;;;;;5093337;28;20011;-55
2023/07/22 12:49:35;;;;;;;;;;;27.80;44.00;;;;;;5094998;28;19951;-54
2023/07/22 12:52:04;;;;;;;;;;;27.80;44.00;;;;;;5093486;28;19924;-56
2023/07/22 12:54:31;;;;;;;;;;;27.80;43.90;;;;;;5094662;28;19924;-54
2023/07/22 12:56:58;;;;;;;;;;;27.90;43.90;;;;;;5090506;28;19956;-56
2023/07/22 12:59:25;;;;;;;;;;;27.80;43.80;;;;;;5092230;28;19928;-56
2023/07/22 13:01:52;;;;;;;;;;;27.80;43.80;;;;;;5081275;28;19928;-54
2023/07/22 13:04:19;;;;;;;;;;;27.80;43.80;;;;;;5073668;28;19932;-55
2023/07/22 13:06:46;;;;;;;;;;;27.90;43.90;;;;;;5080007;28;20011;-54
2023/07/22 13:09:13;;;;;;;;;;;27.90;43.90;;;;;;5080446;28;20110;-54
2023/07/22 13:11:40;;;;;;;;;;;27.80;43.80;;;;;;5081969;28;19932;-55
2023/07/22 13:14:07;;;;;;;;;;;27.90;43.90;;;;;;5076264;28;19932;-56
2023/07/22 13:16:34;;;;;;;;;;;27.90;43.90;;;;;;5090321;28;20356;-55
2023/07/22 13:19:02;;;;;;;;;;;27.80;43.90;;;;;;5094383;28;19924;-56
2023/07/22 13:21:29;;;;;;;;;;;27.90;44.00;;;;;;5094363;28;19931;-58
2023/07/22 13:23:56;;;;;;;;;;;27.90;44.00;;;;;;5094020;28;19924;-55
2023/07/22 13:26:23;;;;;;;;;;;27.90;44.00;;;;;;5094195;28;20018;-55
2023/07/22 13:28:52;;;;;;;;;;;27.80;44.00;;;;;;5094095;28;20011;-54
2023/07/22 13:31:19;;;;;;;;;;;27.80;44.00;;;;;;5093575;28;20018;-53
2023/07/22 13:33:46;;;;;;;;;;;27.80;43.90;;;;;;5094134;28;19924;-55
2023/07/22 13:36:13;;;;;;;;;;;27.80;44.00;;;;;;5092507;28;19928;-56
2023/07/22 13:38:41;;;;;;;;;;;27.90;44.00;;;;;;5093927;28;19924;-56
2023/07/22 13:41:08;;;;;;;;;;;27.90;43.90;;;;;;5093902;28;19994;-56
2023/07/22 13:43:35;;;;;;;;;;;27.80;44.40;;;;;;5093526;28;19955;-53
2023/07/22 13:46:01;;;;;;;;;;;27.90;43.90;;;;;;5092583;28;19924;-55
2023/07/22 13:48:28;;;;;;;;;;;27.80;43.80;;;;;;5094054;28;20215;-56
2023/07/22 13:50:55;;;;;;;;;;;27.90;43.80;;;;;;5092499;28;20300;-54
2023/07/22 13:53:22;;;;;;;;;;;27.90;43.80;;;;;;5093732;28;19931;-55
2023/07/22 13:55:49;;;;;;;;;;;27.90;43.70;;;;;;5093460;28;20010;-52
2023/07/22 13:58:19;;;;;;;;;;;28.00;43.80;;;;;;5093577;28;19931;-55
2023/07/22 14:00:45;;;;;;;;;;;27.90;43.60;;;;;;5092325;28;20430;-55
2023/07/22 14:03:13;;;;;;;;;;;28.00;43.60;;;;;;5093515;28;19967;-56
2023/07/22 14:05:41;;;;;;;;;;;28.00;43.60;;;;;;5092953;28;19924;-55
2023/07/22 14:08:08;;;;;;;;;;;28.00;43.60;;;;;;5093381;28;20351;-56
2023/07/22 14:10:35;;;;;;;;;;;28.00;43.80;;;;;;5093391;28;19953;-56
2023/07/22 14:13:02;;;;;;;;;;;28.00;44.40;;;;;;5093489;28;20014;-56
2023/07/22 14:15:29;;;;;;;;;;;28.00;44.90;;;;;;5093729;28;20273;-53
2023/07/22 14:17:56;;;;;;;;;;;28.00;45.30;;;;;;5092817;28;20384;-54
2023/07/22 14:20:23;;;;;;;;;;;28.00;45.70;;;;;;5092169;28;19928;-56